createdAt,value
2023-05-12T00:02:46.524Z,100876.09
2023-05-12T00:07:48.717Z,100882.75
2023-05-12T00:12:50.923Z,100873.19
2023-05-12T00:17:53.221Z,100880.06
2023-05-12T00:22:55.407Z,100887.16
2023-05-12T00:27:57.664Z,100891.31
2023-05-12T00:32:59.837Z,100888.59
2023-05-12T00:38:02.062Z,100877.56
2023-05-12T00:43:04.563Z,100871.75
2023-05-12T00:48:08.102Z,100879.84
2023-05-12T00:53:10.764Z,100879.03
2023-05-12T00:58:12.937Z,100871.34
2023-05-12T01:03:15.457Z,100868.44
2023-05-12T01:08:18.206Z,100901.66
2023-05-12T01:13:20.470Z,100892.94
2023-05-12T01:18:24.808Z,100883.78
2023-05-12T01:23:36.696Z,100868.56
2023-05-12T01:28:41.584Z,100881.44
2023-05-12T01:33:43.944Z,100891.25
2023-05-12T01:38:46.328Z,100887.53
2023-05-12T01:43:48.478Z,100886.28
2023-05-12T01:48:50.645Z,100881.25
2023-05-12T01:53:52.834Z,100871.25
2023-05-12T01:58:55.076Z,100851.34
2023-05-12T02:03:57.493Z,100874.44
2023-05-12T02:08:59.852Z,100877.53
2023-05-12T02:14:02.109Z,100900.00
2023-05-12T02:19:04.608Z,100876.72
2023-05-12T02:24:07.098Z,100869.22
2023-05-12T02:29:09.357Z,100872.56
2023-05-12T02:34:11.596Z,100887.31
2023-05-12T02:39:13.980Z,100904.56
2023-05-12T02:44:17.633Z,100885.44
2023-05-12T02:49:19.818Z,100889.59
2023-05-12T02:54:22.211Z,100867.38
2023-05-12T02:59:24.551Z,100890.03
2023-05-12T03:04:26.896Z,100874.22
2023-05-12T03:09:29.163Z,100877.97
2023-05-12T03:14:31.343Z,100882.75
2023-05-12T03:19:33.634Z,100895.84
2023-05-12T03:24:37.005Z,100899.78
2023-05-12T03:29:39.223Z,100879.59
2023-05-12T03:34:41.439Z,100903.94
2023-05-12T03:39:43.730Z,100887.09
2023-05-12T03:44:45.980Z,100909.53
2023-05-12T03:49:48.193Z,100898.69
2023-05-12T03:54:51.035Z,100919.69
2023-05-12T03:59:53.216Z,100935.91
2023-05-12T04:04:55.442Z,100940.69
2023-05-12T04:09:57.661Z,100923.41
2023-05-12T04:14:59.888Z,100941.09
2023-05-12T04:20:02.186Z,100928.03
2023-05-12T04:25:04.593Z,100920.75
2023-05-12T04:30:07.506Z,100919.97
2023-05-12T04:35:09.968Z,100919.31
2023-05-12T04:40:12.370Z,100900.78
2023-05-12T04:45:14.599Z,100914.31
2023-05-12T04:50:16.874Z,100922.66
2023-05-12T04:55:19.378Z,100920.56
2023-05-12T05:00:21.766Z,100944.31
2023-05-12T05:05:24.013Z,100931.59
2023-05-12T05:10:26.305Z,100928.50
2023-05-12T05:15:28.524Z,100917.69
2023-05-12T05:20:33.264Z,100935.81
2023-05-12T05:25:35.770Z,100917.69
2023-05-12T05:30:38.598Z,100956.38
2023-05-12T05:35:40.966Z,100943.72
2023-05-12T05:40:53.041Z,100950.13
2023-05-12T05:45:57.529Z,100945.78
2023-05-12T05:50:59.893Z,100943.28
2023-05-12T05:56:02.325Z,100945.38
2023-05-12T06:01:05.165Z,100928.75
2023-05-12T06:06:07.531Z,100938.09
2023-05-12T06:11:09.756Z,100947.03
2023-05-12T06:16:11.945Z,100931.25
2023-05-12T06:21:14.120Z,100944.53
2023-05-12T06:26:16.332Z,100958.06
2023-05-12T06:31:18.720Z,100956.38
2023-05-12T06:36:21.035Z,100967.97
2023-05-12T06:41:25.466Z,100974.31
2023-05-12T06:46:27.838Z,100968.69
2023-05-12T06:51:30.029Z,100963.06
2023-05-12T06:56:32.303Z,100949.50
2023-05-12T07:01:34.967Z,100952.78
2023-05-12T07:06:37.663Z,100952.91
2023-05-12T07:11:39.921Z,100943.97
2023-05-12T07:16:42.230Z,100956.78
2023-05-12T07:21:44.990Z,100964.13
2023-05-12T07:26:47.672Z,100971.94
2023-05-12T07:31:50.460Z,100977.81
2023-05-12T07:36:52.781Z,100963.59
2023-05-12T07:41:55.694Z,100968.38
2023-05-12T07:46:58.069Z,100973.59
2023-05-12T07:52:00.536Z,100955.94
2023-05-12T07:57:02.755Z,100945.78
2023-05-12T08:02:05.199Z,100946.38
2023-05-12T08:07:07.470Z,100946.06
2023-05-12T08:12:09.724Z,100943.81
2023-05-12T08:17:12.050Z,100964.63
2023-05-12T08:22:14.426Z,100965.75
2023-05-12T08:27:16.690Z,100957.69
2023-05-12T08:32:18.926Z,100958.50
2023-05-12T08:37:21.347Z,100937.31
2023-05-12T08:42:37.911Z,100968.38
2023-05-12T08:47:42.115Z,100960.84
2023-05-12T08:52:44.646Z,100952.09
2023-05-12T08:57:48.822Z,100947.88
2023-05-12T09:02:54.698Z,100941.09
2023-05-12T09:07:58.302Z,100926.38
2023-05-12T09:13:09.333Z,100910.63
2023-05-12T09:18:14.112Z,100937.63
2023-05-12T09:23:20.872Z,100940.69
2023-05-12T09:28:23.142Z,100939.22
2023-05-12T09:33:25.844Z,100934.59
2023-05-12T09:38:27.985Z,100932.88
2023-05-12T09:43:30.814Z,100939.34
2023-05-12T09:48:33.758Z,100907.13
2023-05-12T09:53:43.175Z,100927.13
2023-05-12T09:58:48.590Z,100938.22
2023-05-12T10:03:59.654Z,100934.41
2023-05-12T10:09:27.703Z,100933.06
2023-05-12T10:14:30.625Z,100922.66
2023-05-12T10:19:34.329Z,100934.66
2023-05-12T10:24:38.263Z,100899.72
2023-05-12T10:29:41.549Z,100913.50
2023-05-12T10:34:44.611Z,100921.56
2023-05-12T10:39:52.112Z,100919.06
2023-05-12T10:44:56.767Z,100906.97
2023-05-12T10:50:01.155Z,100929.81
2023-05-12T10:55:05.033Z,100926.28
2023-05-12T11:00:14.600Z,100932.16
2023-05-12T11:05:17.483Z,100924.47
2023-05-12T11:10:20.211Z,100931.22
2023-05-12T11:15:23.707Z,100928.44
2023-05-12T11:20:29.551Z,100909.50
2023-05-12T11:25:33.134Z,100909.75
2023-05-12T11:30:35.514Z,100906.47
2023-05-12T11:35:37.752Z,100892.75
2023-05-12T11:40:41.752Z,100888.06
2023-05-12T11:45:46.219Z,100896.88
2023-05-12T11:50:51.606Z,100882.66
2023-05-12T11:55:56.356Z,100862.53
2023-05-12T12:01:10.618Z,100878.88
2023-05-12T12:06:12.786Z,100857.97
2023-05-12T12:11:14.999Z,100869.69
2023-05-12T12:16:17.381Z,100846.41
2023-05-12T12:21:19.718Z,100842.38
2023-05-12T12:26:23.388Z,100849.28
2023-05-12T12:31:25.728Z,100865.59
2023-05-12T12:36:28.025Z,100862.59
2023-05-12T12:41:30.431Z,100865.19
2023-05-12T12:46:33.014Z,100863.84
2023-05-12T12:51:44.977Z,100864.91
2023-05-12T12:56:48.575Z,100882.13
2023-05-12T13:01:54.419Z,100859.06
2023-05-12T13:06:56.807Z,100862.59
2023-05-12T13:12:00.046Z,100847.34
2023-05-12T13:17:02.941Z,100835.03
2023-05-12T13:22:05.570Z,100835.66
2023-05-12T13:27:09.450Z,100839.38
2023-05-12T13:32:11.750Z,100831.19
2023-05-12T13:37:14.003Z,100806.25
2023-05-12T13:42:17.494Z,100811.19
2023-05-12T13:47:19.810Z,100802.72
2023-05-12T13:52:22.292Z,100815.28
2023-05-12T13:57:24.480Z,100825.88
2023-05-12T14:02:26.745Z,100834.78
2023-05-12T14:07:29.730Z,100828.34
2023-05-12T14:12:31.955Z,100829.81
2023-05-12T14:17:34.216Z,100827.50
2023-05-12T14:22:36.583Z,100822.53
2023-05-12T14:27:38.994Z,100816.66
2023-05-12T14:32:41.244Z,100822.47
2023-05-12T14:37:43.512Z,100832.13
2023-05-12T14:42:45.821Z,100825.03
2023-05-12T14:47:48.150Z,100836.41
2023-05-12T14:52:50.478Z,100819.38
2023-05-12T14:57:52.851Z,100826.50
2023-05-12T15:02:55.191Z,100836.50
2023-05-12T15:07:57.489Z,100788.63
2023-05-12T15:13:00.016Z,100834.94
2023-05-12T15:18:02.238Z,100821.84
2023-05-12T15:23:04.526Z,100830.38
2023-05-12T15:28:07.457Z,100840.94
2023-05-12T15:33:10.652Z,100842.09
2023-05-12T15:38:14.139Z,100842.97
2023-05-12T15:43:16.324Z,100829.84
2023-05-12T15:48:18.644Z,100828.19
2023-05-12T15:53:20.999Z,100816.19
2023-05-12T15:58:23.216Z,100844.69
2023-05-12T16:03:25.661Z,100822.69
2023-05-12T16:08:28.047Z,100848.34
2023-05-12T16:13:31.002Z,100864.97
2023-05-12T16:18:33.190Z,100857.72
2023-05-12T16:23:36.066Z,100866.88
2023-05-12T16:28:38.252Z,100854.41
2023-05-12T16:33:40.544Z,100859.22
2023-05-12T16:38:42.923Z,100871.75
2023-05-12T16:43:45.253Z,100873.41
2023-05-12T16:48:47.498Z,100896.69
2023-05-12T16:53:49.647Z,100881.69
2023-05-12T16:58:52.211Z,100878.25
2023-05-12T17:03:54.541Z,100892.38
2023-05-12T17:08:56.958Z,100886.53
2023-05-12T17:13:59.370Z,100907.22
2023-05-12T17:24:07.701Z,100893.69
2023-05-12T17:29:10.120Z,100921.28
2023-05-12T17:34:12.524Z,100920.81
2023-05-12T17:39:16.477Z,100935.97
2023-05-12T17:44:18.856Z,100891.19
2023-05-12T17:49:21.125Z,100940.63
2023-05-12T17:54:23.533Z,100945.19
2023-05-12T17:59:25.817Z,100948.69
2023-05-12T18:04:28.503Z,100952.50
2023-05-12T18:09:30.835Z,100958.69
2023-05-12T18:14:33.079Z,100954.56
2023-05-12T18:19:35.287Z,100946.00
2023-05-12T18:24:37.586Z,100948.25
2023-05-12T18:29:39.944Z,100978.13
2023-05-12T18:34:46.070Z,100993.22
2023-05-12T18:39:48.615Z,100955.22
2023-05-12T18:44:51.099Z,100970.06
2023-05-12T18:49:53.674Z,100972.25
2023-05-12T18:54:55.968Z,100985.50
2023-05-12T18:59:58.200Z,101002.16
2023-05-12T19:05:00.483Z,101001.81
2023-05-12T19:10:02.958Z,101002.16
2023-05-12T19:15:05.853Z,101017.16
2023-05-12T19:20:08.974Z,101012.38
2023-05-12T19:25:12.148Z,101011.44
2023-05-12T19:30:15.570Z,101022.56
2023-05-12T19:35:18.315Z,101012.38
2023-05-12T19:40:20.692Z,101024.25
2023-05-12T19:45:23.484Z,101023.28
2023-05-12T19:50:26.127Z,101029.41
2023-05-12T19:55:28.388Z,101047.50
2023-05-12T20:00:30.730Z,101061.84
2023-05-12T20:05:37.768Z,101051.50
2023-05-12T20:10:40.025Z,101070.44
2023-05-12T20:15:43.928Z,101064.00
2023-05-12T20:20:46.180Z,101052.41
2023-05-12T20:25:48.448Z,101042.63
2023-05-12T20:30:50.900Z,101073.41
2023-05-12T20:35:53.222Z,101068.41
2023-05-12T20:40:55.810Z,101075.38
2023-05-12T20:45:58.090Z,101055.22
2023-05-12T20:51:09.813Z,101066.06
2023-05-12T20:56:13.059Z,101077.94
2023-05-12T21:01:16.964Z,101089.81
2023-05-12T21:06:19.151Z,101064.81
2023-05-12T21:11:21.749Z,101070.50
2023-05-12T21:16:23.997Z,101090.69
2023-05-12T21:21:26.640Z,101063.06
2023-05-12T21:26:28.825Z,101069.28
2023-05-12T21:31:31.186Z,101078.91
2023-05-12T21:36:33.968Z,101080.59
2023-05-12T21:41:38.846Z,101070.66
2023-05-12T21:46:41.170Z,101077.53
2023-05-12T21:51:43.497Z,101089.41
2023-05-12T21:56:45.732Z,101092.56
2023-05-12T22:01:48.023Z,101077.59
2023-05-12T22:06:51.172Z,101089.69
2023-05-12T22:11:53.531Z,101090.72
2023-05-12T22:16:56.452Z,101077.59
2023-05-12T22:21:58.713Z,101078.47
2023-05-12T22:27:00.960Z,101089.72
2023-05-12T22:32:03.216Z,101084.75
2023-05-12T22:37:05.669Z,101072.66
2023-05-12T22:42:07.990Z,101063.31
2023-05-12T22:47:10.236Z,101084.34
2023-05-12T22:52:12.565Z,101074.34
2023-05-12T22:57:14.719Z,101065.19
2023-05-12T23:02:17.155Z,101059.97
2023-05-12T23:07:19.377Z,101072.09
2023-05-12T23:12:21.626Z,101087.06
2023-05-12T23:17:23.943Z,101099.75
2023-05-12T23:22:26.455Z,101085.19
2023-05-12T23:27:28.631Z,101102.50
2023-05-12T23:32:31.579Z,101103.94
2023-05-12T23:37:33.839Z,101088.56
2023-05-12T23:42:36.112Z,101092.50
2023-05-12T23:47:38.339Z,101097.31
2023-05-12T23:52:40.568Z,101064.19
2023-05-12T23:57:42.842Z,101090.25
